createdAt,value
2023-01-17T00:01:43.535Z,7.28
2023-01-17T00:04:32.198Z,7.29
2023-01-17T00:07:17.050Z,7.33
2023-01-17T00:09:58.464Z,7.15
2023-01-17T00:12:27.314Z,6.73
2023-01-17T00:14:55.764Z,6.99
2023-01-17T00:17:23.917Z,6.96
2023-01-17T00:20:09.420Z,7.04
2023-01-17T00:22:55.300Z,7.18
2023-01-17T00:25:59.129Z,7.04
2023-01-17T00:28:27.078Z,6.91
2023-01-17T00:30:54.035Z,7.19
2023-01-17T00:33:21.988Z,7.11
2023-01-17T00:35:48.907Z,7.24
2023-01-17T00:38:21.065Z,7.22
2023-01-17T00:40:48.681Z,7.23
2023-01-17T00:43:36.824Z,7.29
2023-01-17T00:46:22.991Z,7.44
2023-01-17T00:49:08.647Z,7.53
2023-01-17T00:51:54.585Z,7.32
2023-01-17T00:54:39.898Z,7.25
2023-01-17T00:57:25.390Z,7.11
2023-01-17T01:00:10.471Z,7.51
2023-01-17T01:02:56.622Z,7.60
2023-01-17T01:05:42.104Z,7.69
2023-01-17T01:08:45.875Z,7.87
2023-01-17T01:11:37.927Z,7.81
2023-01-17T01:14:24.833Z,8.16
2023-01-17T01:17:10.485Z,7.99
2023-01-17T01:19:56.047Z,8.19
2023-01-17T01:22:41.384Z,8.14
2023-01-17T01:25:27.201Z,8.38
2023-01-17T01:28:20.638Z,8.35
2023-01-17T01:31:05.826Z,8.46
2023-01-17T01:33:32.478Z,8.55
2023-01-17T01:35:59.161Z,8.46
2023-01-17T01:38:26.036Z,8.60
2023-01-17T01:40:56.770Z,8.43
2023-01-17T01:43:47.948Z,8.48
2023-01-17T01:46:32.920Z,8.39
2023-01-17T01:49:03.803Z,8.31
2023-01-17T01:51:43.387Z,8.17
2023-01-17T01:54:20.852Z,8.06
2023-01-17T01:56:50.261Z,7.97
2023-01-17T01:59:21.289Z,7.76
2023-01-17T02:01:51.534Z,7.74
2023-01-17T02:04:19.760Z,7.95
2023-01-17T02:06:51.167Z,7.92
2023-01-17T02:09:18.556Z,8.06
2023-01-17T02:11:47.387Z,7.83
2023-01-17T02:14:18.712Z,7.91
2023-01-17T02:16:50.562Z,7.88
2023-01-17T02:19:38.243Z,8.05
2023-01-17T02:22:26.108Z,8.12
2023-01-17T02:25:23.925Z,7.97
2023-01-17T02:28:23.694Z,7.86
2023-01-17T02:31:45.879Z,7.78
2023-01-17T02:34:41.328Z,7.46
2023-01-17T02:37:15.372Z,7.16
2023-01-17T02:40:06.494Z,7.25
2023-01-17T02:42:46.087Z,7.18
2023-01-17T02:45:18.262Z,7.16
2023-01-17T02:47:45.027Z,7.13
2023-01-17T02:50:20.238Z,7.13
2023-01-17T02:53:12.433Z,7.21
2023-01-17T02:56:22.607Z,6.69
2023-01-17T02:59:10.297Z,6.74
2023-01-17T03:01:42.713Z,6.36
2023-01-17T03:04:18.431Z,6.46
2023-01-17T03:06:56.861Z,6.64
2023-01-17T03:09:25.701Z,6.73
2023-01-17T03:11:52.806Z,6.66
2023-01-17T03:14:19.455Z,6.71
2023-01-17T03:16:46.733Z,6.73
2023-01-17T03:19:14.814Z,6.72
2023-01-17T03:21:41.796Z,6.84
2023-01-17T03:24:08.675Z,6.84
2023-01-17T03:26:35.349Z,6.88
2023-01-17T03:29:02.171Z,7.06
2023-01-17T03:31:28.892Z,7.14
2023-01-17T03:33:55.505Z,7.21
2023-01-17T03:36:22.280Z,7.22
2023-01-17T03:38:48.936Z,7.35
2023-01-17T03:41:15.554Z,7.57
2023-01-17T03:43:42.245Z,7.69
2023-01-17T03:46:22.760Z,7.49
2023-01-17T03:48:50.130Z,7.37
2023-01-17T03:51:17.128Z,7.54
2023-01-17T03:53:46.378Z,7.50
2023-01-17T03:56:14.177Z,7.56
2023-01-17T03:58:40.918Z,7.39
2023-01-17T04:01:07.870Z,7.48
2023-01-17T04:03:34.558Z,7.47
2023-01-17T04:06:01.480Z,7.84
2023-01-17T04:08:28.298Z,8.09
2023-01-17T04:10:54.994Z,8.16
2023-01-17T04:13:21.820Z,8.14
2023-01-17T04:15:50.610Z,8.20
2023-01-17T04:18:19.302Z,8.34
2023-01-17T04:20:46.007Z,8.47
2023-01-17T04:23:13.019Z,8.34
2023-01-17T04:25:39.786Z,8.48
2023-01-17T04:28:06.574Z,8.57
2023-01-17T04:30:33.618Z,8.64
2023-01-17T04:33:00.471Z,8.70
2023-01-17T04:35:29.804Z,8.61
2023-01-17T04:37:56.507Z,8.00
2023-01-17T04:40:23.977Z,7.26
2023-01-17T04:42:51.465Z,7.27
2023-01-17T04:45:18.307Z,6.92
2023-01-17T04:47:44.976Z,6.87
2023-01-17T04:50:11.890Z,6.68
2023-01-17T04:52:38.872Z,6.81
2023-01-17T04:55:06.116Z,6.55
2023-01-17T04:57:32.826Z,6.50
2023-01-17T04:59:59.479Z,6.71
2023-01-17T05:02:26.136Z,6.87
2023-01-17T05:04:52.755Z,6.71
2023-01-17T05:07:19.399Z,6.78
2023-01-17T05:09:46.064Z,6.58
2023-01-17T05:12:12.700Z,6.78
2023-01-17T05:14:39.376Z,6.81
2023-01-17T05:17:06.056Z,6.87
2023-01-17T05:19:32.723Z,6.83
2023-01-17T05:22:04.151Z,7.01
2023-01-17T05:24:32.379Z,6.84
2023-01-17T05:27:03.312Z,7.03
2023-01-17T05:29:30.595Z,7.08
2023-01-17T05:31:57.731Z,7.08
2023-01-17T05:34:24.791Z,7.05
2023-01-17T05:36:51.605Z,7.33
2023-01-17T05:39:18.553Z,7.30
2023-01-17T05:41:45.534Z,7.40
2023-01-17T05:44:12.276Z,7.35
2023-01-17T05:46:39.669Z,7.60
2023-01-17T05:49:06.379Z,7.76
2023-01-17T05:51:33.864Z,7.85
2023-01-17T05:54:00.490Z,7.81
2023-01-17T05:56:27.100Z,7.98
2023-01-17T05:58:53.733Z,7.70
2023-01-17T06:01:20.465Z,7.68
2023-01-17T06:03:47.201Z,7.64
2023-01-17T06:06:14.080Z,7.66
2023-01-17T06:08:40.847Z,7.58
2023-01-17T06:11:07.502Z,7.83
2023-01-17T06:13:34.153Z,7.68
2023-01-17T06:16:04.668Z,7.35
2023-01-17T06:18:32.016Z,7.36
2023-01-17T06:20:58.866Z,7.35
2023-01-17T06:23:25.658Z,7.46
2023-01-17T06:25:52.476Z,7.39
2023-01-17T06:28:22.165Z,7.06
2023-01-17T06:30:49.577Z,7.23
2023-01-17T06:33:16.636Z,7.45
2023-01-17T06:35:51.304Z,7.79
2023-01-17T06:38:18.026Z,7.92
2023-01-17T06:40:44.656Z,8.05
2023-01-17T06:43:13.445Z,8.22
2023-01-17T06:45:40.100Z,8.08
2023-01-17T06:48:07.391Z,8.23
2023-01-17T06:50:34.701Z,8.38
2023-01-17T06:53:04.350Z,8.20
2023-01-17T06:55:33.917Z,8.21
2023-01-17T06:58:02.894Z,8.20
2023-01-17T07:00:31.514Z,8.27
2023-01-17T07:02:58.369Z,8.27
2023-01-17T07:05:25.124Z,8.53
2023-01-17T07:07:52.055Z,8.80
2023-01-17T07:10:18.693Z,8.77
2023-01-17T07:12:45.683Z,8.80
2023-01-17T07:15:12.632Z,8.91
2023-01-17T07:17:39.549Z,9.02
2023-01-17T07:20:07.091Z,9.08
2023-01-17T07:22:34.016Z,9.59
2023-01-17T07:25:00.933Z,9.62
2023-01-17T07:27:30.531Z,9.63
2023-01-17T07:29:57.811Z,9.92
2023-01-17T07:32:26.771Z,9.58
2023-01-17T07:34:54.217Z,9.85
2023-01-17T07:37:21.019Z,10.20
2023-01-17T07:39:47.764Z,10.47
2023-01-17T07:42:14.450Z,10.70
2023-01-17T07:44:44.057Z,10.93
2023-01-17T07:47:11.362Z,11.32
2023-01-17T07:49:38.316Z,12.02
2023-01-17T07:52:07.425Z,12.20
2023-01-17T07:54:34.281Z,12.05
2023-01-17T07:57:01.486Z,11.99
2023-01-17T07:59:28.220Z,12.20
2023-01-17T08:01:55.272Z,12.27
2023-01-17T08:04:25.723Z,12.25
2023-01-17T08:06:52.376Z,12.04
2023-01-17T08:09:19.058Z,12.03
2023-01-17T08:11:45.674Z,12.13
2023-01-17T08:14:12.319Z,12.03
2023-01-17T08:16:40.166Z,12.15
2023-01-17T08:19:06.941Z,12.18
2023-01-17T08:21:33.524Z,12.45
2023-01-17T08:24:00.204Z,12.69
2023-01-17T08:26:27.512Z,12.74
2023-01-17T08:29:00.538Z,12.89
2023-01-17T08:31:29.774Z,12.95
2023-01-17T08:33:57.208Z,12.91
2023-01-17T08:36:25.902Z,12.86
2023-01-17T08:38:53.122Z,12.89
2023-01-17T08:41:21.001Z,12.86
2023-01-17T08:43:48.746Z,12.87
2023-01-17T08:46:15.522Z,12.95
2023-01-17T08:48:42.175Z,12.90
2023-01-17T08:51:09.135Z,13.12
2023-01-17T08:53:35.940Z,13.28
2023-01-17T08:56:04.066Z,13.59
2023-01-17T08:58:32.370Z,13.73
2023-01-17T09:01:03.606Z,14.06
2023-01-17T09:03:32.222Z,14.16
2023-01-17T09:06:06.856Z,14.27
2023-01-17T09:08:34.452Z,14.24
2023-01-17T09:11:10.118Z,14.19
2023-01-17T09:13:37.848Z,14.51
2023-01-17T09:16:05.594Z,14.72
2023-01-17T09:18:33.820Z,14.76
2023-01-17T09:21:10.072Z,14.82
2023-01-17T09:23:36.758Z,15.04
2023-01-17T09:26:03.426Z,15.07
2023-01-17T09:28:30.078Z,14.79
2023-01-17T09:30:56.968Z,15.04
2023-01-17T09:33:24.564Z,15.26
2023-01-17T09:35:51.199Z,15.30
2023-01-17T09:38:17.945Z,15.23
2023-01-17T09:40:47.521Z,15.51
2023-01-17T09:43:26.415Z,15.21
2023-01-17T09:45:53.195Z,15.30
2023-01-17T09:48:36.905Z,15.42
2023-01-17T09:51:29.663Z,15.19
2023-01-17T09:53:56.596Z,15.13
2023-01-17T09:56:31.289Z,15.12
2023-01-17T09:59:18.759Z,15.19
2023-01-17T10:02:20.830Z,15.28
2023-01-17T10:05:24.842Z,15.37
2023-01-17T10:08:07.336Z,15.54
2023-01-17T10:10:47.634Z,15.70
2023-01-17T10:13:41.080Z,15.60
2023-01-17T10:16:32.660Z,15.49
2023-01-17T10:19:18.041Z,15.34
2023-01-17T10:22:10.342Z,15.22
2023-01-17T10:24:52.033Z,15.37
2023-01-17T10:27:27.876Z,15.53
2023-01-17T10:29:54.661Z,15.40
2023-01-17T10:32:25.169Z,15.51
2023-01-17T10:34:53.436Z,15.53
2023-01-17T10:37:26.500Z,15.66
2023-01-17T10:39:58.096Z,15.50
2023-01-17T10:42:49.733Z,15.54
2023-01-17T10:45:29.251Z,15.66
2023-01-17T10:48:05.514Z,15.74
2023-01-17T10:50:50.603Z,15.74
2023-01-17T10:53:45.717Z,15.92
2023-01-17T10:56:15.831Z,15.93
2023-01-17T10:58:42.521Z,15.77
2023-01-17T11:01:21.034Z,15.88
2023-01-17T11:03:51.082Z,15.69
2023-01-17T11:06:21.440Z,15.77
2023-01-17T11:08:56.577Z,15.85
2023-01-17T11:11:34.369Z,15.92
2023-01-17T11:14:05.434Z,15.88
2023-01-17T11:16:32.591Z,15.98
2023-01-17T11:19:15.328Z,16.20
2023-01-17T11:21:54.364Z,16.27
2023-01-17T11:24:30.421Z,16.19
2023-01-17T11:26:58.087Z,16.20
2023-01-17T11:29:27.444Z,16.33
2023-01-17T11:31:56.354Z,16.32
2023-01-17T11:34:26.258Z,15.94
2023-01-17T11:37:18.421Z,15.75
2023-01-17T11:39:48.241Z,15.99
2023-01-17T11:42:36.062Z,15.93
2023-01-17T11:45:25.894Z,15.88
2023-01-17T11:48:13.633Z,16.01
2023-01-17T11:50:46.406Z,15.86
2023-01-17T11:53:15.900Z,16.01
2023-01-17T11:55:57.950Z,16.01
2023-01-17T11:58:26.676Z,15.87
2023-01-17T12:01:35.292Z,15.89
2023-01-17T12:04:08.484Z,15.90
2023-01-17T12:06:58.458Z,15.90
2023-01-17T12:09:28.400Z,15.89
2023-01-17T12:12:28.506Z,15.87
2023-01-17T12:15:03.131Z,15.75
2023-01-17T12:18:09.103Z,15.85
2023-01-17T12:20:54.524Z,15.86
2023-01-17T12:23:31.169Z,15.69
2023-01-17T12:26:20.803Z,15.81
2023-01-17T12:29:02.533Z,15.64
2023-01-17T12:32:03.419Z,15.63
2023-01-17T12:41:08.067Z,15.58
2023-01-17T12:43:39.674Z,15.50
2023-01-17T12:46:21.395Z,15.49
2023-01-17T12:48:58.831Z,15.56
2023-01-17T12:51:29.942Z,15.48
2023-01-17T12:54:16.097Z,15.36
2023-01-17T12:57:20.441Z,15.26
2023-01-17T12:59:52.616Z,15.25
2023-01-17T13:02:37.591Z,15.22
2023-01-17T13:05:17.303Z,15.31
2023-01-17T13:07:52.874Z,15.33
2023-01-17T13:10:52.425Z,15.28
2023-01-17T13:13:24.251Z,15.28
2023-01-17T13:15:57.929Z,15.17
2023-01-17T13:18:27.051Z,15.14
2023-01-17T13:21:16.818Z,15.11
2023-01-17T13:24:06.167Z,15.12
2023-01-17T13:26:51.264Z,15.12
2023-01-17T13:29:30.091Z,15.20
2023-01-17T13:32:18.589Z,15.17
2023-01-17T13:35:12.606Z,15.08
2023-01-17T13:37:57.500Z,15.15
2023-01-17T13:40:42.407Z,15.13
2023-01-17T13:43:29.191Z,15.05
2023-01-17T13:46:03.341Z,15.06
2023-01-17T13:48:38.220Z,14.98
2023-01-17T13:51:06.454Z,14.95
2023-01-17T13:53:36.945Z,15.02
2023-01-17T13:56:36.162Z,14.94
2023-01-17T13:59:05.054Z,14.67
2023-01-17T14:01:38.622Z,14.93
2023-01-17T14:04:14.506Z,14.78
2023-01-17T14:06:45.709Z,14.68
2023-01-17T14:09:27.297Z,14.74
2023-01-17T14:11:57.122Z,14.66
2023-01-17T14:14:42.889Z,14.64
2023-01-17T14:17:28.285Z,14.76
2023-01-17T14:20:16.928Z,14.76
2023-01-17T14:22:56.685Z,14.72
2023-01-17T14:25:29.673Z,14.75
2023-01-17T14:28:07.961Z,14.82
2023-01-17T14:30:37.661Z,14.73
2023-01-17T14:33:29.398Z,14.78
2023-01-17T14:36:03.364Z,14.70
2023-01-17T14:38:32.177Z,14.90
2023-01-17T14:41:09.452Z,14.86
2023-01-17T14:43:40.955Z,14.69
2023-01-17T14:46:33.902Z,14.66
2023-01-17T14:49:04.021Z,14.64
2023-01-17T14:51:35.123Z,14.47
2023-01-17T14:54:05.373Z,14.43
2023-01-17T14:56:33.611Z,14.46
2023-01-17T14:59:17.331Z,14.36
2023-01-17T15:02:06.130Z,14.32
2023-01-17T15:04:39.315Z,14.38
2023-01-17T15:07:07.609Z,14.34
2023-01-17T15:09:37.893Z,14.35
2023-01-17T15:12:08.544Z,14.38
2023-01-17T15:14:39.852Z,14.30
2023-01-17T15:17:20.141Z,14.48
2023-01-17T15:19:55.703Z,14.32
2023-01-17T15:22:25.918Z,14.28
2023-01-17T15:24:53.990Z,14.25
2023-01-17T15:27:21.294Z,14.32
2023-01-17T15:29:48.502Z,14.28
2023-01-17T15:32:22.573Z,14.31
2023-01-17T15:34:51.232Z,14.36
2023-01-17T15:37:37.658Z,14.26
2023-01-17T15:40:20.965Z,14.17
2023-01-17T15:42:51.877Z,14.20
2023-01-17T15:45:22.286Z,14.20
2023-01-17T15:47:49.015Z,14.06
2023-01-17T15:50:23.769Z,14.17
2023-01-17T15:52:52.667Z,14.03
2023-01-17T15:55:23.604Z,13.95
2023-01-17T15:57:50.430Z,13.89
2023-01-17T16:00:20.781Z,14.03
2023-01-17T16:02:55.305Z,13.99
2023-01-17T16:05:22.586Z,13.97
2023-01-17T16:07:51.187Z,14.00
2023-01-17T16:10:20.401Z,13.89
2023-01-17T16:12:48.619Z,13.82
2023-01-17T16:15:18.289Z,13.75
2023-01-17T16:17:48.670Z,13.69
2023-01-17T16:20:28.430Z,13.66
2023-01-17T16:22:55.284Z,13.62
2023-01-17T16:25:23.741Z,13.61
2023-01-17T16:27:52.399Z,13.34
2023-01-17T16:30:21.742Z,13.53
2023-01-17T16:32:49.459Z,13.48
2023-01-17T16:35:19.133Z,13.48
2023-01-17T16:37:51.844Z,13.50
2023-01-17T16:40:21.113Z,13.42
2023-01-17T16:42:48.143Z,13.47
2023-01-17T16:45:15.747Z,13.45
2023-01-17T16:47:43.900Z,13.46
2023-01-17T16:50:16.697Z,13.46
2023-01-17T16:52:43.415Z,13.55
2023-01-17T16:55:13.271Z,13.63
2023-01-17T16:57:40.224Z,13.59
2023-01-17T17:00:08.390Z,13.55
2023-01-17T17:02:35.199Z,13.71
2023-01-17T17:05:02.044Z,13.60
2023-01-17T17:07:28.754Z,13.64
2023-01-17T17:09:55.390Z,13.71
2023-01-17T17:12:24.113Z,13.70
2023-01-17T17:14:50.743Z,13.67
2023-01-17T17:17:17.433Z,13.65
2023-01-17T17:19:44.082Z,13.58
2023-01-17T17:22:10.761Z,13.55
2023-01-17T17:24:38.115Z,13.47
2023-01-17T17:27:04.793Z,13.51
2023-01-17T17:29:31.530Z,13.48
2023-01-17T17:31:58.141Z,13.51
2023-01-17T17:34:27.724Z,13.56
2023-01-17T17:36:54.334Z,13.59
2023-01-17T17:39:21.049Z,13.62
2023-01-17T17:41:47.839Z,13.66
2023-01-17T17:44:14.557Z,13.69
2023-01-17T17:46:42.247Z,13.50
2023-01-17T17:49:09.609Z,13.35
2023-01-17T17:51:38.917Z,13.39
2023-01-17T17:54:08.399Z,13.25
2023-01-17T17:56:35.846Z,13.02
2023-01-17T17:59:04.254Z,13.01
2023-01-17T18:01:31.493Z,13.08
2023-01-17T18:04:02.561Z,13.12
2023-01-17T18:06:31.117Z,13.00
2023-01-17T18:08:57.746Z,13.04
2023-01-17T18:11:26.793Z,13.23
2023-01-17T18:13:55.377Z,13.25
2023-01-17T18:16:28.241Z,13.43
2023-01-17T18:18:57.500Z,13.52
2023-01-17T18:21:36.140Z,13.50
2023-01-17T18:24:15.088Z,13.64
2023-01-17T18:26:57.052Z,13.62
2023-01-17T18:29:25.587Z,13.67
2023-01-17T18:31:53.513Z,13.70
2023-01-17T18:34:24.371Z,13.80
2023-01-17T18:36:52.093Z,13.71
2023-01-17T18:39:25.917Z,13.68
2023-01-17T18:41:53.178Z,13.75
2023-01-17T18:44:22.190Z,13.64
2023-01-17T18:46:50.556Z,13.61
2023-01-17T18:49:21.007Z,13.63
2023-01-17T18:51:52.941Z,13.61
2023-01-17T18:54:20.534Z,13.52
2023-01-17T18:56:47.499Z,13.60
2023-01-17T18:59:18.438Z,13.65
2023-01-17T19:01:46.165Z,13.53
2023-01-17T19:04:14.582Z,13.48
2023-01-17T19:06:45.945Z,13.49
2023-01-17T19:09:14.849Z,13.41
2023-01-17T19:11:44.354Z,13.43
2023-01-17T19:14:11.847Z,13.44
2023-01-17T19:16:40.689Z,13.22
2023-01-17T19:19:14.312Z,13.46
2023-01-17T19:21:41.068Z,13.46
2023-01-17T19:24:08.614Z,13.49
2023-01-17T19:26:35.485Z,13.45
2023-01-17T19:29:07.004Z,13.43
2023-01-17T19:31:39.754Z,13.51
2023-01-17T19:34:06.450Z,13.57
2023-01-17T19:36:35.960Z,13.53
2023-01-17T19:39:06.156Z,13.54
2023-01-17T19:41:41.489Z,13.53
2023-01-17T19:44:10.023Z,13.38
2023-01-17T19:46:37.007Z,13.42
2023-01-17T19:49:05.991Z,13.46
2023-01-17T19:51:33.284Z,13.41
2023-01-17T19:54:01.583Z,13.39
2023-01-17T19:56:29.893Z,13.48
2023-01-17T19:59:01.824Z,13.41
2023-01-17T20:01:31.809Z,13.41
2023-01-17T20:03:59.699Z,13.46
2023-01-17T20:06:30.802Z,13.45
2023-01-17T20:08:57.829Z,13.45
2023-01-17T20:11:26.600Z,13.46
2023-01-17T20:13:55.230Z,13.59
2023-01-17T20:16:23.592Z,13.47
2023-01-17T20:18:50.310Z,13.54
2023-01-17T20:21:22.991Z,13.63
2023-01-17T20:23:52.098Z,13.51
2023-01-17T20:26:21.869Z,13.50
2023-01-17T20:28:51.946Z,13.58
2023-01-17T20:31:21.876Z,13.60
2023-01-17T20:33:50.764Z,13.54
2023-01-17T20:36:19.234Z,13.58
2023-01-17T20:38:46.462Z,13.61
2023-01-17T20:41:29.492Z,13.60
2023-01-17T20:43:58.016Z,13.60
2023-01-17T20:46:35.595Z,13.64
2023-01-17T20:49:05.475Z,13.57
2023-01-17T20:51:34.497Z,13.63
2023-01-17T20:54:03.587Z,13.56
2023-01-17T20:56:34.564Z,13.62
2023-01-17T20:59:06.297Z,13.59
2023-01-17T21:01:34.447Z,13.62
2023-01-17T21:04:01.271Z,13.69
2023-01-17T21:06:27.880Z,13.58
2023-01-17T21:08:54.691Z,13.66
2023-01-17T21:11:24.285Z,13.68
2023-01-17T21:13:51.620Z,13.64
2023-01-17T21:16:21.295Z,13.69
2023-01-17T21:18:49.447Z,13.70
2023-01-17T21:21:19.305Z,13.67
2023-01-17T21:23:46.041Z,13.66
2023-01-17T21:26:15.208Z,13.74
2023-01-17T21:28:44.480Z,13.63
2023-01-17T21:31:24.775Z,13.41
2023-01-17T21:33:55.587Z,13.53
2023-01-17T21:36:24.776Z,13.54
2023-01-17T21:38:54.687Z,13.53
2023-01-17T21:41:27.313Z,13.72
2023-01-17T21:43:57.894Z,13.69
2023-01-17T21:46:25.526Z,13.77
2023-01-17T21:48:52.479Z,13.75
2023-01-17T21:51:19.888Z,13.73
2023-01-17T21:53:46.689Z,13.83
2023-01-17T21:56:32.914Z,13.82
2023-01-17T21:58:59.795Z,13.78
2023-01-17T22:01:30.091Z,13.78
2023-01-17T22:04:02.840Z,13.85
2023-01-17T22:06:31.575Z,13.87
2023-01-17T22:08:59.336Z,13.72
2023-01-17T22:11:27.833Z,13.77
2023-01-17T22:14:25.662Z,13.86
2023-01-17T22:17:06.606Z,13.78
2023-01-17T22:19:33.962Z,13.67
2023-01-17T22:22:01.086Z,13.74
2023-01-17T22:24:27.765Z,13.57
2023-01-17T22:26:54.379Z,13.62
2023-01-17T22:29:21.747Z,13.54
2023-01-17T22:31:49.085Z,13.50
2023-01-17T22:34:15.832Z,13.40
2023-01-17T22:36:42.563Z,13.51
2023-01-17T22:39:10.361Z,13.45
2023-01-17T22:41:38.489Z,13.53
2023-01-17T22:44:08.668Z,13.46
2023-01-17T22:46:40.565Z,13.46
2023-01-17T22:49:08.563Z,13.49
2023-01-17T22:51:35.841Z,13.49
2023-01-17T22:54:02.666Z,13.57
2023-01-17T22:56:32.084Z,13.50
2023-01-17T22:59:00.941Z,13.51
2023-01-17T23:01:32.876Z,13.55
2023-01-17T23:04:02.197Z,13.46
2023-01-17T23:06:34.137Z,13.56
2023-01-17T23:09:03.869Z,13.61
2023-01-17T23:11:39.137Z,13.37
2023-01-17T23:14:06.025Z,13.51
2023-01-17T23:16:51.217Z,13.62
2023-01-17T23:19:23.983Z,13.45
2023-01-17T23:22:11.965Z,13.46
2023-01-17T23:24:43.375Z,13.40
2023-01-17T23:27:58.847Z,13.29
2023-01-17T23:30:36.630Z,13.23
2023-01-17T23:33:06.486Z,13.22
2023-01-17T23:35:41.289Z,13.32
2023-01-17T23:38:33.807Z,13.32
2023-01-17T23:41:27.402Z,13.55
2023-01-17T23:43:56.068Z,13.52
2023-01-17T23:46:24.154Z,13.70
2023-01-17T23:48:51.272Z,13.70
2023-01-17T23:51:18.660Z,13.63
2023-01-17T23:53:45.330Z,13.76
2023-01-17T23:56:21.761Z,13.87
2023-01-17T23:58:49.030Z,13.76
